Wetterdaten: Woche 22.02.10 - 28.02.10 (KW8)
Datum Zeit Temp. A. Feuchte A. Luftdruck Regen Wind Richtung Taupunkt Windchill Windben
22.02.2010 00:00 -3,3 C 86 % 1005,3 hPa 0,0 l/m 0,0 km/h N -5,4 C -3,3 C 1,6 km/h
22.02.2010 01:00 -4,0 C 88 % 1005,0 hPa 0,0 l/m 0,0 km/h N -5,7 C -4,0 C 0,0 km/h
22.02.2010 02:00 -3,9 C 89 % 1004,5 hPa 0,0 l/m 0,0 km/h N -5,5 C -3,9 C 0,8 km/h
22.02.2010 03:00 -3,6 C 88 % 1004,1 hPa 0,0 l/m 0,0 km/h N -5,3 C -3,6 C 0,0 km/h
22.02.2010 04:00 -4,3 C 89 % 1003,8 hPa 0,0 l/m 0,0 km/h N -5,9 C -4,3 C 0,8 km/h
22.02.2010 05:00 -4,8 C 90 % 1003,5 hPa 0,0 l/m 0,0 km/h N -6,3 C -4,8 C 0,8 km/h
22.02.2010 06:00 -5,0 C 89 % 1003,4 hPa 0,0 l/m 0,0 km/h N -6,5 C -5,0 C 0,0 km/h
22.02.2010 07:00 -4,1 C 90 % 1003,3 hPa 0,0 l/m 0,0 km/h N -5,5 C -4,1 C 1,6 km/h
22.02.2010 08:00 -1,8 C 90 % 1003,2 hPa 0,0 l/m 0,7 km/h NW -3,2 C -1,8 C 2,7 km/h
22.02.2010 09:00 -0,1 C 86 % 1002,9 hPa 0,0 l/m 1,6 km/h NO -2,3 C -0,1 C 5,2 km/h
22.02.2010 10:00 1,5 C 80 % 1002,5 hPa 0,0 l/m 1,6 km/h O -1,7 C 1,5 C 5,2 km/h
22.02.2010 11:00 2,4 C 75 % 1002,5 hPa 0,0 l/m 0,8 km/h O-NO -1,6 C 2,4 C 4,0 km/h
22.02.2010 12:00 3,7 C 69 % 1002,0 hPa 0,0 l/m 1,1 km/h NO -1,6 C 3,7 C 5,6 km/h
22.02.2010 13:00 5,4 C 67 % 1001,4 hPa 0,0 l/m 1,7 km/h O-NO -0,4 C 5,4 C 6,0 km/h
22.02.2010 14:00 6,4 C 65 % 1001,0 hPa 0,0 l/m 0,6 km/h O 0,3 C 6,4 C 4,0 km/h
22.02.2010 15:00 7,3 C 59 % 1000,7 hPa 0,0 l/m 1,1 km/h O -0,1 C 7,3 C 4,4 km/h
22.02.2010 16:00 6,0 C 65 % 1000,6 hPa 0,0 l/m 0,3 km/h N -0,1 C 6,0 C 2,0 km/h
22.02.2010 17:00 3,9 C 73 % 1000,8 hPa 0,0 l/m 0,0 km/h N -0,5 C 3,9 C 0,0 km/h
22.02.2010 18:00 2,0 C 78 % 1001,1 hPa 0,0 l/m 0,1 km/h N -1,4 C 2,0 C 1,6 km/h
22.02.2010 19:00 2,1 C 79 % 1000,9 hPa 0,0 l/m 0,1 km/h N -1,1 C 2,1 C 2,0 km/h
22.02.2010 20:00 1,3 C 81 % 1000,9 hPa 0,0 l/m 0,0 km/h N -1,6 C 1,3 C 1,6 km/h
22.02.2010 21:00 0,5 C 84 % 1000,5 hPa 0,0 l/m 0,0 km/h N -1,9 C 0,5 C 0,4 km/h
22.02.2010 22:00 -1,0 C 86 % 1000,2 hPa 0,0 l/m 0,0 km/h N -3,0 C -1,0 C 0,0 km/h
22.02.2010 23:00 -2,0 C 89 % 999,7 hPa 0,0 l/m 0,0 km/h N -3,6 C -2,0 C 0,0 km/h
23.02.2010 00:00 -2,3 C 90 % 999,6 hPa 0,0 l/m 0,0 km/h N -3,8 C -2,3 C 0,8 km/h
23.02.2010 01:00 -2,8 C 90 % 999,0 hPa 0,0 l/m 0,0 km/h N -4,2 C -2,8 C 0,0 km/h
23.02.2010 02:00 -2,8 C 91 % 998,8 hPa 0,0 l/m 0,0 km/h N -4,2 C -2,8 C 0,8 km/h
23.02.2010 03:00 -2,6 C 91 % 998,7 hPa 0,0 l/m 0,0 km/h N -3,8 C -2,6 C 0,8 km/h
23.02.2010 04:00 -2,4 C 91 % 998,8 hPa 0,0 l/m 0,0 km/h N -3,7 C -2,4 C 0,4 km/h
23.02.2010 05:00 -2,7 C 91 % 999,0 hPa 0,0 l/m 0,0 km/h N -3,9 C -2,7 C 0,4 km/h
23.02.2010 06:00 -2,6 C 91 % 999,1 hPa 0,0 l/m 0,0 km/h N -3,9 C -2,6 C 0,8 km/h
23.02.2010 07:00 -1,4 C 92 % 999,6 hPa 0,0 l/m 0,1 km/h N -2,6 C -1,4 C 2,0 km/h
23.02.2010 08:00 0,2 C 92 % 1000,0 hPa 0,0 l/m 0,2 km/h NW -0,9 C 0,2 C 2,4 km/h
23.02.2010 09:00 1,1 C 92 % 1000,1 hPa 0,0 l/m 0,9 km/h NW -0,1 C 1,1 C 4,8 km/h
23.02.2010 10:00 1,7 C 92 % 1000,5 hPa 0,0 l/m 0,8 km/h NO 0,5 C 1,7 C 4,4 km/h
23.02.2010 11:00 2,5 C 91 % 1000,5 hPa 0,0 l/m 2,0 km/h NO 1,1 C 2,5 C 5,6 km/h
23.02.2010 12:00 3,6 C 87 % 1000,4 hPa 0,0 l/m 2,3 km/h O-NO 1,6 C 3,6 C 6,8 km/h
23.02.2010 13:00 5,4 C 80 % 1000,3 hPa 0,0 l/m 0,8 km/h N 2,3 C 5,4 C 5,6 km/h
23.02.2010 14:00 6,7 C 77 % 1000,3 hPa 0,0 l/m 0,7 km/h N-NO 2,8 C 6,7 C 4,8 km/h
23.02.2010 15:00 7,6 C 72 % 1000,5 hPa 0,0 l/m 0,9 km/h N 2,8 C 7,6 C 4,4 km/h
23.02.2010 16:00 7,4 C 72 % 1000,4 hPa 0,0 l/m 0,2 km/h N 2,7 C 7,4 C 2,4 km/h
23.02.2010 17:00 5,3 C 77 % 1000,8 hPa 0,0 l/m 0,0 km/h N 1,6 C 5,3 C 0,8 km/h
23.02.2010 18:00 3,3 C 83 % 1001,3 hPa 0,0 l/m 0,0 km/h N 0,7 C 3,3 C 0,4 km/h
23.02.2010 19:00 1,4 C 85 % 1001,8 hPa 0,0 l/m 0,0 km/h N -0,8 C 1,4 C 0,4 km/h
23.02.2010 20:00 0,2 C 89 % 1002,1 hPa 0,0 l/m 0,0 km/h N -1,4 C 0,2 C 0,4 km/h
23.02.2010 21:00 -0,6 C 90 % 1002,6 hPa 0,0 l/m 0,0 km/h N -2,1 C -0,6 C 0,0 km/h
23.02.2010 22:00 -0,8 C 90 % 1002,8 hPa 0,0 l/m 0,0 km/h N -2,2 C -0,8 C 0,0 km/h
23.02.2010 23:00 -0,9 C 90 % 1002,9 hPa 0,0 l/m 0,0 km/h N -2,3 C -0,9 C 0,0 km/h
24.02.2010 00:00 -1,4 C 90 % 1002,9 hPa 0,0 l/m 0,0 km/h N -2,8 C -1,4 C 0,0 km/h
24.02.2010 01:00 -0,9 C 91 % 1002,9 hPa 0,0 l/m 0,1 km/h N -2,2 C -0,9 C 1,6 km/h
24.02.2010 02:00 -0,5 C 91 % 1003,0 hPa 0,0 l/m 0,0 km/h N -1,8 C -0,5 C 0,0 km/h
24.02.2010 03:00 -0,7 C 91 % 1003,1 hPa 0,0 l/m 0,0 km/h N -2,0 C -0,7 C 0,0 km/h
24.02.2010 04:00 -1,0 C 91 % 1003,3 hPa 0,0 l/m 0,0 km/h N -2,3 C -1,0 C 0,0 km/h
24.02.2010 05:00 -1,3 C 91 % 1003,4 hPa 0,0 l/m 0,0 km/h N -2,6 C -1,3 C 0,0 km/h
24.02.2010 06:00 -1,3 C 91 % 1003,4 hPa 0,0 l/m 0,0 km/h N -2,6 C -1,3 C 0,4 km/h
24.02.2010 07:00 -1,8 C 91 % 1003,8 hPa 0,0 l/m 0,0 km/h N -3,1 C -1,8 C 0,4 km/h
24.02.2010 08:00 0,8 C 91 % 1004,0 hPa 0,0 l/m 0,0 km/h N -0,6 C 0,8 C 0,4 km/h
24.02.2010 09:00 4,5 C 83 % 1004,0 hPa 0,0 l/m 1,4 km/h O 1,8 C 4,5 C 4,4 km/h
24.02.2010 10:00 7,6 C 72 % 1003,8 hPa 0,0 l/m 1,0 km/h O 2,9 C 7,6 C 6,0 km/h
24.02.2010 11:00 9,4 C 70 % 1003,5 hPa 0,0 l/m 3,2 km/h O 4,1 C 9,4 C 6,4 km/h
24.02.2010 12:00 10,3 C 73 % 1003,2 hPa 0,0 l/m 3,9 km/h O-SO 5,5 C 10,3 C 8,9 km/h
24.02.2010 13:00 9,9 C 76 % 1003,3 hPa 0,0 l/m 3,9 km/h O 5,8 C 9,9 C 8,4 km/h
24.02.2010 14:00 10,4 C 73 % 1003,3 hPa 0,0 l/m 2,8 km/h O 5,7 C 10,4 C 7,6 km/h
24.02.2010 15:00 10,1 C 74 % 1003,4 hPa 0,0 l/m 2,2 km/h O 5,7 C 10,1 C 6,4 km/h
24.02.2010 16:00 9,3 C 75 % 1003,6 hPa 0,0 l/m 1,4 km/h O-SO 5,1 C 9,3 C 5,2 km/h
24.02.2010 17:00 7,4 C 79 % 1003,9 hPa 0,0 l/m 0,3 km/h N 3,9 C 7,4 C 2,0 km/h
24.02.2010 18:00 5,6 C 84 % 1004,5 hPa 0,0 l/m 0,0 km/h N 3,1 C 5,6 C 0,4 km/h
24.02.2010 19:00 4,8 C 86 % 1004,9 hPa 0,0 l/m 0,0 km/h N 2,7 C 4,8 C 0,8 km/h
24.02.2010 20:00 4,1 C 88 % 1004,8 hPa 0,0 l/m 0,0 km/h N 2,2 C 4,1 C 0,8 km/h
24.02.2010 21:00 3,9 C 89 % 1005,0 hPa 0,0 l/m 0,0 km/h N 2,3 C 3,9 C 0,4 km/h
24.02.2010 22:00 3,6 C 89 % 1004,8 hPa 0,0 l/m 0,0 km/h N 1,9 C 3,6 C 0,8 km/h
24.02.2010 23:00 2,8 C 90 % 1004,9 hPa 0,0 l/m 0,0 km/h N 1,3 C 2,8 C 2,0 km/h
25.02.2010 00:00 2,3 C 90 % 1005,3 hPa 0,0 l/m 0,2 km/h N 0,8 C 2,3 C 3,6 km/h
25.02.2010 01:00 0,8 C 91 % 1005,6 hPa 0,0 l/m 0,0 km/h N -0,6 C 0,8 C 0,4 km/h
25.02.2010 02:00 0,2 C 92 % 1005,7 hPa 0,0 l/m 0,0 km/h N -1,0 C 0,2 C 0,0 km/h
25.02.2010 03:00 0,2 C 92 % 1005,7 hPa 0,0 l/m 0,0 km/h N -1,0 C 0,2 C 0,4 km/h
25.02.2010 04:00 -0,4 C 92 % 1005,9 hPa 0,0 l/m 0,0 km/h N -1,5 C -0,4 C 0,0 km/h
25.02.2010 05:00 -0,2 C 92 % 1006,1 hPa 0,0 l/m 0,0 km/h N -1,3 C -0,2 C 0,4 km/h
25.02.2010 06:00 0,8 C 93 % 1006,4 hPa 0,0 l/m 0,0 km/h N -0,3 C 0,8 C 0,0 km/h
25.02.2010 07:00 1,2 C 93 % 1007,0 hPa 0,0 l/m 0,0 km/h N 0,1 C 1,2 C 1,2 km/h
25.02.2010 08:00 2,5 C 93 % 1007,3 hPa 0,0 l/m 0,1 km/h O-SO 1,5 C 2,5 C 2,0 km/h
25.02.2010 09:00 5,4 C 87 % 1007,3 hPa 0,0 l/m 2,0 km/h O 3,4 C 5,4 C 6,0 km/h
25.02.2010 10:00 8,6 C 76 % 1007,0 hPa 0,0 l/m 1,6 km/h O 4,5 C 8,6 C 6,0 km/h
25.02.2010 11:00 10,8 C 67 % 1006,8 hPa 0,0 l/m 2,5 km/h O-SO 4,9 C 10,8 C 7,2 km/h
25.02.2010 12:00 13,0 C 53 % 1006,3 hPa 0,0 l/m 5,0 km/h W-SW 3,5 C 12,9 C 16,9 km/h
25.02.2010 13:00 13,5 C 50 % 1005,7 hPa 0,0 l/m 4,2 km/h SW 3,2 C 13,5 C 12,1 km/h
25.02.2010 14:00 13,6 C 47 % 1005,2 hPa 0,0 l/m 1,8 km/h NO 2,5 C 13,6 C 6,8 km/h
25.02.2010 15:00 13,7 C 49 % 1005,0 hPa 0,0 l/m 2,5 km/h O 3,2 C 13,7 C 8,0 km/h
25.02.2010 16:00 12,9 C 56 % 1004,7 hPa 0,0 l/m 1,4 km/h SO 4,2 C 12,9 C 7,2 km/h
25.02.2010 17:00 11,3 C 62 % 1004,7 hPa 0,0 l/m 0,9 km/h N 4,3 C 11,3 C 4,8 km/h
25.02.2010 18:00 9,5 C 67 % 1004,6 hPa 0,0 l/m 0,6 km/h N 3,6 C 9,5 C 4,8 km/h
25.02.2010 19:00 7,2 C 76 % 1004,3 hPa 0,0 l/m 0,0 km/h N 3,2 C 7,2 C 1,2 km/h
25.02.2010 20:00 6,5 C 79 % 1003,9 hPa 0,0 l/m 0,1 km/h N 3,1 C 6,5 C 2,4 km/h
25.02.2010 21:00 4,5 C 84 % 1003,5 hPa 0,0 l/m 0,0 km/h N 2,0 C 4,5 C 0,8 km/h
25.02.2010 22:00 5,9 C 85 % 1002,7 hPa 0,0 l/m 0,0 km/h N 3,4 C 5,9 C 5,6 km/h
25.02.2010 23:00 6,6 C 81 % 1001,7 hPa 0,0 l/m 0,8 km/h S 3,5 C 6,6 C 5,6 km/h
26.02.2010 00:00 5,3 C 81 % 1001,0 hPa 0,0 l/m 0,8 km/h S 2,3 C 5,3 C 5,6 km/h
26.02.2010 01:00 2,9 C 87 % 1000,3 hPa 0,0 l/m 0,0 km/h N 0,9 C 2,9 C 2,4 km/h
26.02.2010 02:00 1,8 C 89 % 999,6 hPa 0,0 l/m 0,0 km/h N 0,2 C 1,8 C 1,6 km/h
26.02.2010 03:00 3,7 C 90 % 998,8 hPa 0,0 l/m 0,0 km/h O-SO 2,1 C 3,7 C 3,2 km/h
26.02.2010 04:00 3,7 C 87 % 998,0 hPa 0,0 l/m 0,8 km/h N 1,6 C 3,7 C 6,4 km/h
26.02.2010 05:00 1,2 C 89 % 997,8 hPa 0,0 l/m 0,0 km/h N -0,4 C 1,2 C 0,0 km/h
26.02.2010 06:00 0,5 C 91 % 997,5 hPa 0,0 l/m 0,0 km/h N -0,8 C 0,5 C 0,0 km/h
26.02.2010 07:00 0,5 C 92 % 997,8 hPa 0,0 l/m 0,0 km/h N -0,6 C 0,5 C 0,0 km/h
26.02.2010 08:00 2,1 C 92 % 998,0 hPa 0,0 l/m 0,0 km/h N 1,0 C 2,1 C 0,5 km/h
26.02.2010 09:00 4,2 C 91 % 998,1 hPa 0,0 l/m 0,4 km/h N-NO 2,8 C 4,2 C 2,0 km/h
26.02.2010 10:00 6,2 C 83 % 997,8 hPa 0,0 l/m 0,8 km/h NO 3,5 C 6,2 C 3,6 km/h
26.02.2010 11:00 7,7 C 75 % 997,6 hPa 0,0 l/m 0,4 km/h O 3,6 C 7,7 C 3,2 km/h
26.02.2010 12:00 9,1 C 71 % 997,2 hPa 0,0 l/m 1,3 km/h NO 4,0 C 9,1 C 4,8 km/h
26.02.2010 13:00 9,3 C 71 % 997,4 hPa 0,5 l/m 3,3 km/h W-SW 4,3 C 9,3 C 10,9 km/h
26.02.2010 14:00 8,2 C 82 % 998,0 hPa 0,8 l/m 3,8 km/h W 5,3 C 8,2 C 16,9 km/h
26.02.2010 15:00 7,9 C 81 % 998,1 hPa 0,3 l/m 6,9 km/h W-NW 4,8 C 7,3 C 22,9 km/h
26.02.2010 16:00 6,9 C 82 % 998,5 hPa 0,3 l/m 6,7 km/h W-NW 4,0 C 6,6 C 19,7 km/h
26.02.2010 17:00 6,6 C 82 % 999,1 hPa 0,0 l/m 3,8 km/h NW 3,7 C 6,6 C 11,3 km/h
26.02.2010 18:00 6,6 C 82 % 999,6 hPa 0,3 l/m 2,0 km/h NW 3,8 C 6,6 C 8,9 km/h
26.02.2010 19:00 6,3 C 84 % 999,7 hPa 0,0 l/m 1,1 km/h N-NO 3,8 C 6,3 C 4,8 km/h
26.02.2010 20:00 6,3 C 84 % 999,7 hPa 0,0 l/m 2,8 km/h N-NW 3,8 C 6,3 C 6,8 km/h
26.02.2010 21:00 7,6 C 74 % 1000,0 hPa 0,0 l/m 11,1 km/h W-NW 3,2 C 4,3 C 29,8 km/h
26.02.2010 22:00 7,7 C 67 % 1000,9 hPa 0,0 l/m 18,0 km/h NW 1,9 C 1,1 C 38,6 km/h
26.02.2010 23:00 7,2 C 65 % 1001,7 hPa 0,0 l/m 19,3 km/h W-SW 1,0 C -0,0 C 43,0 km/h
27.02.2010 00:00 7,1 C 64 % 1002,3 hPa 0,0 l/m 19,6 km/h W-SW 0,7 C -0,3 C 43,4 km/h
27.02.2010 01:00 6,9 C 65 % 1003,0 hPa 0,0 l/m 18,7 km/h W 0,7 C -0,2 C 39,4 km/h
27.02.2010 02:00 6,8 C 65 % 1004,1 hPa 0,0 l/m 16,8 km/h NW 0,6 C 0,5 C 39,5 km/h
27.02.2010 03:00 6,4 C 65 % 1005,0 hPa 0,0 l/m 16,0 km/h W-NW 0,2 C 0,3 C 33,0 km/h
27.02.2010 04:00 6,3 C 62 % 1005,8 hPa 0,0 l/m 13,6 km/h NW -0,4 C 1,3 C 33,8 km/h
27.02.2010 05:00 6,0 C 63 % 1006,6 hPa 0,0 l/m 12,4 km/h W -0,4 C 1,7 C 33,8 km/h
27.02.2010 06:00 5,9 C 61 % 1007,1 hPa 0,0 l/m 15,3 km/h N-NW -1,0 C 0,1 C 33,4 km/h
27.02.2010 07:00 5,7 C 63 % 1008,0 hPa 0,0 l/m 15,9 km/h NW -0,8 C -0,5 C 35,4 km/h
27.02.2010 08:00 6,6 C 58 % 1008,8 hPa 0,0 l/m 14,8 km/h W -1,1 C 1,1 C 34,2 km/h
27.02.2010 09:00 8,0 C 52 % 1009,6 hPa 0,0 l/m 14,5 km/h N-NW -1,3 C 2,9 C 35,8 km/h
27.02.2010 10:00 8,8 C 49 % 1010,0 hPa 0,0 l/m 15,3 km/h NO -1,5 C 3,6 C 35,4 km/h
27.02.2010 11:00 10,0 C 44 % 1010,2 hPa 0,0 l/m 12,6 km/h N-NW -1,7 C 6,2 C 28,6 km/h
27.02.2010 12:00 10,6 C 41 % 1009,7 hPa 0,0 l/m 12,5 km/h NW -2,3 C 7,0 C 28,6 km/h
27.02.2010 13:00 11,0 C 39 % 1009,6 hPa 0,0 l/m 10,6 km/h W -2,5 C 8,3 C 25,7 km/h
27.02.2010 14:00 11,2 C 39 % 1009,8 hPa 0,0 l/m 9,9 km/h W-NW -2,2 C 8,9 C 25,8 km/h
27.02.2010 15:00 11,0 C 40 % 1009,9 hPa 0,0 l/m 7,7 km/h NW -2,0 C 10,1 C 22,5 km/h
27.02.2010 16:00 10,4 C 42 % 1009,6 hPa 0,0 l/m 4,6 km/h NW -1,8 C 10,4 C 13,7 km/h
27.02.2010 17:00 8,1 C 50 % 1009,2 hPa 0,0 l/m 0,7 km/h NW -1,8 C 8,1 C 2,8 km/h
27.02.2010 18:00 4,4 C 63 % 1009,4 hPa 0,0 l/m 0,1 km/h N -2,1 C 4,4 C 1,6 km/h
27.02.2010 19:00 2,0 C 72 % 1009,3 hPa 0,0 l/m 0,0 km/h N -2,5 C 2,0 C 0,4 km/h
27.02.2010 20:00 0,7 C 77 % 1008,8 hPa 0,0 l/m 0,0 km/h N -2,9 C 0,7 C 1,2 km/h
27.02.2010 21:00 1,2 C 75 % 1008,3 hPa 0,0 l/m 0,1 km/h N -2,8 C 1,2 C 1,6 km/h
27.02.2010 22:00 2,8 C 67 % 1007,1 hPa 0,0 l/m 0,1 km/h N -2,8 C 2,8 C 2,0 km/h
27.02.2010 23:00 3,8 C 61 % 1005,6 hPa 0,0 l/m 0,7 km/h S -3,0 C 3,8 C 5,6 km/h
28.02.2010 00:00 3,9 C 60 % 1004,1 hPa 0,0 l/m 2,9 km/h S-SO -3,1 C 3,9 C 6,0 km/h
28.02.2010 01:00 3,5 C 62 % 1002,7 hPa 0,0 l/m 2,2 km/h O-SO -3,2 C 3,5 C 6,8 km/h
28.02.2010 02:00 1,6 C 69 % 1001,5 hPa 0,0 l/m 0,8 km/h O-NO -3,6 C 1,6 C 2,8 km/h
28.02.2010 03:00 2,0 C 71 % 1000,3 hPa 0,0 l/m 0,1 km/h N -2,8 C 2,0 C 1,6 km/h
28.02.2010 04:00 4,9 C 60 % 999,3 hPa 0,0 l/m 2,9 km/h S-SO -2,3 C 4,9 C 10,1 km/h
28.02.2010 05:00 5,8 C 56 % 998,7 hPa 0,0 l/m 3,4 km/h S-SO -2,4 C 5,8 C 11,7 km/h
28.02.2010 06:00 5,0 C 59 % 998,2 hPa 0,0 l/m 0,6 km/h N -2,3 C 5,0 C 4,4 km/h
28.02.2010 07:00 5,1 C 59 % 998,0 hPa 0,0 l/m 0,2 km/h N -2,3 C 5,1 C 2,8 km/h
28.02.2010 08:00 8,0 C 51 % 997,8 hPa 0,0 l/m 0,9 km/h SO -1,6 C 8,0 C 4,4 km/h
28.02.2010 09:00 9,6 C 49 % 997,3 hPa 0,0 l/m 0,7 km/h N -0,6 C 9,6 C 7,2 km/h
28.02.2010 10:00 10,6 C 49 % 997,4 hPa 0,0 l/m 1,1 km/h O 0,3 C 10,6 C 4,8 km/h
28.02.2010 11:00 10,9 C 51 % 997,1 hPa 0,0 l/m 3,3 km/h O-SO 1,2 C 10,9 C 9,3 km/h
28.02.2010 12:00 11,5 C 50 % 996,9 hPa 0,0 l/m 2,9 km/h O 1,5 C 11,5 C 8,0 km/h
28.02.2010 13:00 12,1 C 50 % 996,8 hPa 0,0 l/m 3,4 km/h O-NO 2,0 C 12,1 C 7,6 km/h
28.02.2010 14:00 13,1 C 49 % 996,2 hPa 0,0 l/m 3,6 km/h N-NO 2,7 C 13,1 C 7,6 km/h
28.02.2010 15:00 13,5 C 46 % 996,2 hPa 0,0 l/m 1,9 km/h O 2,1 C 13,5 C 5,6 km/h
28.02.2010 16:00 12,5 C 53 % 995,7 hPa 0,0 l/m 1,1 km/h O 3,0 C 12,5 C 3,6 km/h
28.02.2010 17:00 11,2 C 60 % 995,4 hPa 0,0 l/m 0,1 km/h N 3,6 C 11,2 C 1,2 km/h
28.02.2010 18:00 9,7 C 67 % 996,3 hPa 0,0 l/m 0,2 km/h NW 3,8 C 9,7 C 2,0 km/h
28.02.2010 19:00 10,1 C 66 % 998,3 hPa 0,0 l/m 9,8 km/h N-NW 4,0 C 7,7 C 23,8 km/h
28.02.2010 20:00 8,6 C 78 % 999,9 hPa 0,3 l/m 7,7 km/h NW 4,9 C 7,4 C 16,9 km/h
28.02.2010 21:00 7,6 C 86 % 1001,0 hPa 0,3 l/m 0,8 km/h N 5,5 C 7,6 C 3,2 km/h
28.02.2010 22:00 6,8 C 89 % 1001,8 hPa 0,0 l/m 0,1 km/h N 5,1 C 6,8 C 1,6 km/h
28.02.2010 23:00 6,5 C 91 % 1002,1 hPa 0,0 l/m 0,2 km/h N 5,1 C 6,5 C 2,4 km/h
Min-Datum _ 22.02.10 27.02.10 28.02.10 - 22.02.10 - 22.02.10 22.02.10 22.02.10
_ Min-Zeit 05:30 14:15 16:45 - 00:00 - 06:30 06:30 01:00
Minimum _ -5,2 C 38 % 995,4 hPa - 0,0 km/h - -6,7 C -5,2 C 0,0 km/h
Max-Datum _ 25.02.10 25.02.10 27.02.10 26.02.10 27.02.10 - 24.02.10 25.02.10 27.02.10
_ Max-Zeit 15:00 05:45 11:00 14:00 00:45 - 13:30 14:00 00:30
Maximum _ 14,2 C 93 % 1010,3 hPa 0,8 l/m 20,4 km/h
W-SW
- 6,2 C 14,0 C 49,9 km/h
W-NW
Durchschnitt _ 4,5 C 76 % 1002,4 hPa #2,6 l/m 2,6 km/h NW 0,2 C 3,9 C 7,3 km/h